createdAt,value
2017-11-08T00:00:33.021Z,30.37
2017-11-08T00:02:59.466Z,32.60
2017-11-08T00:05:25.959Z,31.40
2017-11-08T00:07:52.483Z,30.50
2017-11-08T00:10:19.687Z,31.10
2017-11-08T00:12:46.249Z,30.98
2017-11-08T00:15:12.734Z,33.13
2017-11-08T00:17:39.964Z,33.03
2017-11-08T00:20:07.526Z,31.33
2017-11-08T00:22:34.074Z,32.72
2017-11-08T00:25:00.569Z,34.60
2017-11-08T00:27:26.995Z,31.12
2017-11-08T00:29:53.497Z,31.15
2017-11-08T00:32:20.815Z,33.97
2017-11-08T00:34:47.343Z,32.25
2017-11-08T00:37:13.793Z,31.12
2017-11-08T00:39:40.275Z,32.33
2017-11-08T00:42:07.492Z,32.90
2017-11-08T00:44:33.927Z,31.45
2017-11-08T00:47:00.517Z,33.88
2017-11-08T00:49:27.715Z,35.05
2017-11-08T00:51:54.172Z,34.30
2017-11-08T00:54:20.639Z,34.25
2017-11-08T00:56:47.815Z,36.53
2017-11-08T00:59:15.047Z,33.20
2017-11-08T01:01:41.487Z,34.47
2017-11-08T01:04:07.939Z,33.97
2017-11-08T01:06:34.427Z,35.78
2017-11-08T01:09:00.864Z,33.53
2017-11-08T01:11:27.317Z,34.22
2017-11-08T01:13:53.767Z,33.55
2017-11-08T01:16:20.240Z,34.57
2017-11-08T01:18:47.444Z,35.17
2017-11-08T01:21:13.879Z,34.63
2017-11-08T01:23:40.337Z,34.78
2017-11-08T01:26:06.803Z,36.38
2017-11-08T01:28:34.960Z,33.95
2017-11-08T01:31:01.398Z,33.33
2017-11-08T01:33:28.594Z,33.80
2017-11-08T01:35:55.045Z,35.80
2017-11-08T01:38:21.487Z,37.38
2017-11-08T01:40:47.954Z,34.28
2017-11-08T01:43:16.044Z,37.40
2017-11-08T01:45:42.538Z,36.50
2017-11-08T01:48:09.016Z,36.45
2017-11-08T01:50:38.433Z,34.95
2017-11-08T01:53:04.935Z,37.40
2017-11-08T01:55:31.422Z,36.78
2017-11-08T01:57:57.893Z,34.38
2017-11-08T02:00:24.318Z,34.75
2017-11-08T02:02:51.580Z,34.10
2017-11-08T02:05:18.767Z,31.95
2017-11-08T02:07:45.230Z,37.60
2017-11-08T02:10:11.729Z,36.38
2017-11-08T02:12:38.154Z,36.10
2017-11-08T02:15:05.365Z,36.88
2017-11-08T02:17:31.799Z,36.70
2017-11-08T02:19:58.396Z,36.15
2017-11-08T02:22:24.852Z,33.47
2017-11-08T02:24:55.543Z,33.88
2017-11-08T02:27:27.948Z,34.05
2017-11-08T02:29:54.368Z,33.10
2017-11-08T02:32:21.575Z,34.92
2017-11-08T02:34:48.067Z,34.38
2017-11-08T02:37:15.267Z,34.08
2017-11-08T02:39:41.695Z,37.10
2017-11-08T02:42:08.121Z,35.25
2017-11-08T02:44:34.564Z,34.60
2017-11-08T02:47:01.005Z,37.13
2017-11-08T02:49:27.493Z,35.53
2017-11-08T02:51:54.932Z,37.67
2017-11-08T02:54:23.346Z,34.28
2017-11-08T02:56:49.855Z,37.25
2017-11-08T02:59:16.349Z,36.45
2017-11-08T03:01:43.562Z,38.38
2017-11-08T03:04:10.112Z,35.65
2017-11-08T03:06:36.595Z,35.30
2017-11-08T03:09:03.056Z,36.88
2017-11-08T03:11:29.512Z,35.67
2017-11-08T03:13:55.956Z,36.03
2017-11-08T03:16:22.458Z,35.45
2017-11-08T03:18:49.012Z,34.35
2017-11-08T03:21:15.448Z,35.40
2017-11-08T03:23:41.935Z,36.97
2017-11-08T03:26:08.400Z,34.65
2017-11-08T03:28:34.921Z,36.17
2017-11-08T03:31:01.373Z,36.75
2017-11-08T03:33:27.823Z,37.33
2017-11-08T03:35:54.294Z,36.58
2017-11-08T03:38:20.747Z,35.47
2017-11-08T03:40:47.216Z,35.90
2017-11-08T03:43:13.649Z,33.75
2017-11-08T03:45:40.105Z,33.75
2017-11-08T03:48:07.348Z,34.53
2017-11-08T03:50:33.768Z,36.00
2017-11-08T03:53:00.252Z,34.03
2017-11-08T03:55:26.718Z,35.22
2017-11-08T03:57:53.219Z,33.78
2017-11-08T04:00:20.431Z,35.20
2017-11-08T04:02:46.889Z,38.22
2017-11-08T04:05:14.347Z,38.85
2017-11-08T04:07:40.801Z,38.17
2017-11-08T04:10:07.268Z,38.80
2017-11-08T04:12:33.764Z,39.17
2017-11-08T04:15:00.236Z,39.78
2017-11-08T04:17:27.439Z,37.65
2017-11-08T04:19:53.877Z,39.40
2017-11-08T04:22:20.565Z,42.40
2017-11-08T04:24:47.743Z,42.67
2017-11-08T04:27:14.953Z,45.95
2017-11-08T04:29:41.399Z,41.17
2017-11-08T04:32:08.605Z,43.55
2017-11-08T04:34:35.074Z,43.65
2017-11-08T04:37:01.539Z,41.70
2017-11-08T04:39:27.991Z,43.22
2017-11-08T04:41:55.147Z,42.03
2017-11-08T04:44:22.393Z,43.65
2017-11-08T04:46:48.839Z,43.30
2017-11-08T04:49:15.277Z,43.25
2017-11-08T04:51:42.564Z,45.55
2017-11-08T04:54:09.072Z,43.35
2017-11-08T04:56:35.531Z,45.60
2017-11-08T04:59:02.687Z,45.08
2017-11-08T05:01:29.188Z,44.08
2017-11-08T05:03:57.148Z,42.62
2017-11-08T05:06:23.643Z,43.80
2017-11-08T05:08:50.135Z,42.62
2017-11-08T05:11:16.575Z,43.80
2017-11-08T05:13:43.035Z,45.35
2017-11-08T05:16:09.466Z,44.15
2017-11-08T05:18:35.934Z,44.92
2017-11-08T05:21:03.135Z,48.22
2017-11-08T05:23:29.587Z,45.17
2017-11-08T05:25:56.100Z,46.55
2017-11-08T05:28:22.524Z,44.63
2017-11-08T05:30:48.998Z,44.63
2017-11-08T05:33:15.423Z,44.65
2017-11-08T05:35:41.954Z,48.35
2017-11-08T05:38:08.398Z,45.53
2017-11-08T05:40:34.960Z,44.42
2017-11-08T05:43:01.414Z,47.70
2017-11-08T05:45:27.859Z,44.83
2017-11-08T05:47:54.328Z,44.05
2017-11-08T05:50:20.800Z,47.50
2017-11-08T05:52:47.433Z,46.40
2017-11-08T05:55:13.856Z,45.60
2017-11-08T05:57:40.383Z,46.78
2017-11-08T06:00:07.556Z,48.00
2017-11-08T06:02:34.034Z,45.83
2017-11-08T06:05:00.500Z,46.15
2017-11-08T06:07:27.712Z,45.12
2017-11-08T06:09:54.217Z,47.28
2017-11-08T06:12:20.676Z,44.25
2017-11-08T06:14:47.150Z,44.75
2017-11-08T06:17:13.624Z,43.83
2017-11-08T06:19:40.830Z,46.47
2017-11-08T06:22:07.345Z,42.28
2017-11-08T06:24:33.747Z,43.13
2017-11-08T06:27:00.941Z,52.35
2017-11-08T06:29:27.441Z,45.55
2017-11-08T06:31:54.771Z,47.47
2017-11-08T06:34:21.265Z,45.65
2017-11-08T06:36:47.709Z,42.70
2017-11-08T06:39:14.203Z,42.78
2017-11-08T06:41:41.380Z,46.28
2017-11-08T06:44:08.732Z,43.80
2017-11-08T06:46:35.144Z,41.47
2017-11-08T06:49:01.604Z,42.42
2017-11-08T06:51:28.087Z,43.37
2017-11-08T06:53:54.527Z,41.83
2017-11-08T06:56:20.996Z,42.47
2017-11-08T06:58:47.429Z,40.70
2017-11-08T07:01:13.886Z,41.60
2017-11-08T07:03:40.371Z,40.65
2017-11-08T07:06:06.831Z,42.77
2017-11-08T07:08:33.359Z,41.53
2017-11-08T07:10:59.799Z,40.77
2017-11-08T07:13:26.296Z,39.50
2017-11-08T07:15:53.504Z,39.40
2017-11-08T07:18:19.946Z,41.08
2017-11-08T07:20:46.408Z,38.72
2017-11-08T07:23:12.899Z,38.72
2017-11-08T07:25:39.353Z,37.60
2017-11-08T07:28:05.812Z,39.22
2017-11-08T07:30:32.392Z,39.85
2017-11-08T07:32:59.599Z,39.97
2017-11-08T07:35:26.030Z,46.10
2017-11-08T07:37:52.570Z,43.92
2017-11-08T07:40:19.019Z,41.75
2017-11-08T07:42:45.480Z,39.75
2017-11-08T07:45:11.923Z,39.03
2017-11-08T07:47:38.416Z,38.33
2017-11-08T07:50:04.857Z,38.53
2017-11-08T07:52:31.321Z,41.20
2017-11-08T07:55:00.771Z,44.28
2017-11-08T07:57:27.965Z,42.88
2017-11-08T07:59:54.444Z,42.97
2017-11-08T08:02:20.950Z,42.10
2017-11-08T08:04:47.372Z,42.35
2017-11-08T08:07:13.901Z,33.60
2017-11-08T08:09:42.920Z,33.45
2017-11-08T08:12:12.244Z,34.63
2017-11-08T08:14:38.875Z,35.50
2017-11-08T08:17:05.369Z,34.42
2017-11-08T08:19:35.512Z,33.57
2017-11-08T08:22:01.954Z,33.60
2017-11-08T08:24:28.974Z,35.43
2017-11-08T08:26:55.440Z,36.03
2017-11-08T08:29:21.912Z,34.83
2017-11-08T08:31:48.379Z,34.92
2017-11-08T08:34:14.806Z,31.42
2017-11-08T08:36:41.232Z,33.17
2017-11-08T08:39:07.704Z,30.92
2017-11-08T08:41:34.197Z,30.13
2017-11-08T08:44:00.723Z,30.40
2017-11-08T08:46:27.923Z,25.83
2017-11-08T08:48:54.456Z,25.73
2017-11-08T08:51:20.879Z,26.63
2017-11-08T08:53:47.342Z,26.55
2017-11-08T08:56:13.801Z,18.47
2017-11-08T08:58:40.247Z,20.17
2017-11-08T09:01:06.782Z,23.17
2017-11-08T09:03:34.214Z,23.03
2017-11-08T09:06:00.720Z,23.90
2017-11-08T09:08:27.173Z,24.63
2017-11-08T09:10:53.592Z,21.13
2017-11-08T09:13:20.065Z,18.17
2017-11-08T09:15:46.644Z,18.33
2017-11-08T09:18:13.844Z,19.37
2017-11-08T09:20:40.287Z,19.77
2017-11-08T09:23:06.772Z,20.30
2017-11-08T09:25:33.249Z,20.50
2017-11-08T09:27:59.704Z,14.73
2017-11-08T09:30:29.234Z,20.30
2017-11-08T09:32:55.800Z,20.58
2017-11-08T09:35:23.798Z,15.45
2017-11-08T09:38:03.182Z,13.05
2017-11-08T09:40:30.484Z,13.62
2017-11-08T09:42:57.705Z,10.55
2017-11-08T09:45:24.163Z,10.98
2017-11-08T09:47:50.819Z,6.30
2017-11-08T09:50:18.050Z,9.50
2017-11-08T09:52:44.516Z,9.48
2017-11-08T09:55:11.692Z,12.27
2017-11-08T09:57:38.730Z,11.75
2017-11-08T10:00:05.901Z,11.80
2017-11-08T10:02:34.328Z,12.50
2017-11-08T10:05:00.809Z,10.73
2017-11-08T10:07:27.996Z,10.67
2017-11-08T10:09:54.595Z,9.35
2017-11-08T10:12:20.915Z,10.20
2017-11-08T10:14:47.368Z,9.70
2017-11-08T10:17:14.543Z,6.43
2017-11-08T10:19:40.991Z,12.10
2017-11-08T10:22:09.494Z,11.20
2017-11-08T10:24:35.904Z,10.30
2017-11-08T10:27:03.137Z,8.55
2017-11-08T10:29:30.331Z,11.57
2017-11-08T10:31:56.805Z,8.70
2017-11-08T10:34:23.467Z,10.18
2017-11-08T10:36:49.900Z,8.75
2017-11-08T10:39:16.383Z,10.30
2017-11-08T10:41:43.017Z,11.70
2017-11-08T10:44:09.530Z,6.35
2017-11-08T10:46:35.993Z,9.18
2017-11-08T10:49:05.288Z,8.60
2017-11-08T10:51:31.708Z,10.32
2017-11-08T10:53:58.197Z,9.82
2017-11-08T10:56:24.761Z,9.00
2017-11-08T10:58:51.205Z,9.30
2017-11-08T11:01:20.500Z,7.80
2017-11-08T11:03:50.805Z,11.30
2017-11-08T11:06:17.328Z,11.65
2017-11-08T11:08:43.791Z,8.48
2017-11-08T11:11:10.228Z,11.05
2017-11-08T11:13:42.757Z,9.88
2017-11-08T11:16:09.228Z,9.55
2017-11-08T11:18:35.720Z,10.65
2017-11-08T11:21:02.888Z,7.65
2017-11-08T11:23:36.123Z,9.30
2017-11-08T11:26:02.620Z,5.78
2017-11-08T11:28:29.812Z,8.95
2017-11-08T11:30:56.463Z,6.60
2017-11-08T11:33:22.954Z,9.32
2017-11-08T11:35:50.128Z,8.93
2017-11-08T11:38:18.636Z,8.15
2017-11-08T11:40:45.072Z,9.20
2017-11-08T11:43:11.555Z,8.40
2017-11-08T11:45:38.004Z,6.68
2017-11-08T11:48:04.497Z,5.75
2017-11-08T11:50:31.119Z,9.30
2017-11-08T11:52:57.581Z,9.90
2017-11-08T11:55:24.052Z,8.70
2017-11-08T11:57:50.505Z,8.88
2017-11-08T12:00:16.999Z,9.07
2017-11-08T12:02:43.464Z,8.32
2017-11-08T12:05:09.936Z,6.35
2017-11-08T12:07:38.137Z,7.87
2017-11-08T12:10:04.782Z,10.73
2017-11-08T12:12:31.229Z,10.13
2017-11-08T12:14:57.705Z,10.90
2017-11-08T12:17:24.206Z,11.35
2017-11-08T12:19:50.824Z,11.85
2017-11-08T12:22:18.062Z,12.85
2017-11-08T12:24:45.392Z,9.52
2017-11-08T12:27:13.759Z,13.02
2017-11-08T12:29:40.253Z,12.02
2017-11-08T12:32:06.820Z,13.07
2017-11-08T12:34:33.385Z,13.52
2017-11-08T12:36:59.889Z,10.52
2017-11-08T12:39:27.106Z,11.63
2017-11-08T12:41:53.549Z,13.05
2017-11-08T12:44:25.029Z,12.63
2017-11-08T12:46:52.386Z,15.88
2017-11-08T12:49:18.911Z,13.40
2017-11-08T12:51:45.372Z,21.40
2017-11-08T12:54:12.630Z,15.80
2017-11-08T12:56:39.855Z,14.30
2017-11-08T12:59:06.285Z,14.38
2017-11-08T13:01:32.761Z,14.68
2017-11-08T13:03:59.972Z,14.73
2017-11-08T13:06:26.515Z,15.88
2017-11-08T13:08:52.981Z,14.05
2017-11-08T13:11:25.702Z,15.80
2017-11-08T13:13:52.367Z,12.50
2017-11-08T13:16:18.869Z,14.93
2017-11-08T13:18:46.090Z,13.98
2017-11-08T13:21:12.622Z,16.30
2017-11-08T13:23:39.113Z,15.73
2017-11-08T13:26:06.447Z,16.12
2017-11-08T13:28:33.001Z,16.90
2017-11-08T13:31:00.303Z,13.30
2017-11-08T13:33:26.921Z,18.23
2017-11-08T13:35:53.536Z,19.80
2017-11-08T13:38:20.018Z,18.27
2017-11-08T13:40:46.553Z,17.65
2017-11-08T13:43:13.036Z,24.23
2017-11-08T13:45:39.665Z,19.25
2017-11-08T13:48:06.300Z,19.67
2017-11-08T13:50:32.773Z,17.70
2017-11-08T13:52:59.253Z,16.45
2017-11-08T13:55:26.695Z,15.90
2017-11-08T13:57:53.153Z,16.90
2017-11-08T14:00:20.369Z,16.23
2017-11-08T14:02:46.881Z,16.20
2017-11-08T14:05:13.343Z,18.00
2017-11-08T14:07:39.832Z,16.60
2017-11-08T14:10:07.174Z,15.95
2017-11-08T14:12:49.411Z,15.15
2017-11-08T14:15:15.900Z,13.68
2017-11-08T14:17:42.380Z,15.77
2017-11-08T14:20:09.275Z,15.15
2017-11-08T14:22:35.762Z,15.10
2017-11-08T14:25:02.350Z,15.68
2017-11-08T14:27:28.861Z,18.50
2017-11-08T14:29:55.309Z,17.75
2017-11-08T14:32:24.772Z,16.85
2017-11-08T14:34:53.066Z,20.08
2017-11-08T14:37:20.253Z,20.40
2017-11-08T14:39:46.851Z,23.25
2017-11-08T14:42:20.423Z,21.40
2017-11-08T14:44:47.048Z,17.92
2017-11-08T14:47:13.615Z,21.77
2017-11-08T14:49:40.108Z,18.45
2017-11-08T14:52:06.735Z,18.15
2017-11-08T14:54:34.044Z,20.12
2017-11-08T14:57:00.517Z,13.90
2017-11-08T14:59:27.078Z,15.90
2017-11-08T15:01:53.683Z,14.50
2017-11-08T15:04:20.198Z,12.90
2017-11-08T15:06:46.752Z,14.95
2017-11-08T15:09:15.172Z,12.40
2017-11-08T15:11:44.679Z,10.93
2017-11-08T15:14:16.168Z,10.57
2017-11-08T15:16:42.900Z,11.30
2017-11-08T15:19:09.635Z,13.10
2017-11-08T15:21:43.124Z,10.40
2017-11-08T15:24:10.600Z,10.60
2017-11-08T15:26:37.780Z,10.82
2017-11-08T15:29:04.305Z,13.75
2017-11-08T15:31:30.820Z,12.20
2017-11-08T15:33:58.049Z,12.45
2017-11-08T15:36:24.521Z,11.50
2017-11-08T15:38:51.815Z,12.60
2017-11-08T15:41:19.309Z,14.68
2017-11-08T15:43:45.804Z,13.32
2017-11-08T15:46:13.201Z,13.05
2017-11-08T15:48:39.694Z,12.65
2017-11-08T15:51:06.969Z,13.65
2017-11-08T15:53:33.494Z,14.13
2017-11-08T15:56:00.715Z,12.85
2017-11-08T15:58:27.317Z,10.75
2017-11-08T16:00:53.922Z,12.52
2017-11-08T16:03:21.183Z,14.68
2017-11-08T16:05:48.483Z,14.20
2017-11-08T16:08:30.932Z,14.65
2017-11-08T16:11:01.663Z,19.08
2017-11-08T16:13:35.268Z,21.58
2017-11-08T16:16:01.848Z,20.85
2017-11-08T16:18:28.520Z,21.50
2017-11-08T16:20:55.054Z,20.52
2017-11-08T16:23:21.639Z,20.02
2017-11-08T16:25:48.121Z,14.13
2017-11-08T16:28:14.580Z,18.90
2017-11-08T16:30:41.097Z,17.60
2017-11-08T16:33:07.553Z,17.45
2017-11-08T16:35:34.118Z,15.40
2017-11-08T16:38:00.621Z,17.15
2017-11-08T16:40:27.153Z,15.25
2017-11-08T16:42:53.709Z,19.33
2017-11-08T16:45:20.286Z,16.83
2017-11-08T16:47:47.641Z,15.48
2017-11-08T16:50:14.155Z,17.12
2017-11-08T16:52:45.319Z,17.27
2017-11-08T16:55:11.763Z,17.73
2017-11-08T16:57:38.337Z,15.60
2017-11-08T17:00:05.554Z,19.80
2017-11-08T17:02:32.147Z,14.20
2017-11-08T17:04:59.448Z,19.92
2017-11-08T17:07:25.980Z,16.52
2017-11-08T17:09:52.662Z,17.90
2017-11-08T17:12:19.365Z,18.95
2017-11-08T17:14:45.918Z,24.17
2017-11-08T17:17:12.647Z,16.45
2017-11-08T17:19:39.135Z,18.15
2017-11-08T17:22:07.364Z,18.90
2017-11-08T17:24:34.023Z,20.10
2017-11-08T17:27:00.635Z,17.67
2017-11-08T17:29:27.148Z,16.65
2017-11-08T17:31:54.515Z,17.40
2017-11-08T17:34:21.990Z,19.58
2017-11-08T17:36:48.688Z,17.17
2017-11-08T17:39:15.370Z,19.87
2017-11-08T17:41:42.884Z,18.83
2017-11-08T17:44:09.388Z,18.10
2017-11-08T17:46:37.398Z,16.75
2017-11-08T17:49:08.810Z,21.60
2017-11-08T17:51:37.261Z,22.10
2017-11-08T17:54:03.737Z,20.15
2017-11-08T17:56:30.213Z,22.58
2017-11-08T17:58:56.729Z,19.62
2017-11-08T18:01:23.535Z,18.40
2017-11-08T18:03:50.117Z,18.20
2017-11-08T18:06:16.665Z,18.17
2017-11-08T18:08:43.260Z,16.50
2017-11-08T18:11:09.874Z,21.98
2017-11-08T18:13:36.444Z,19.80
2017-11-08T18:16:03.090Z,18.90
2017-11-08T18:18:30.352Z,18.00
2017-11-08T18:20:57.617Z,17.30
2017-11-08T18:23:25.016Z,19.15
2017-11-08T18:25:51.596Z,19.83
2017-11-08T18:28:19.021Z,19.08
2017-11-08T18:30:45.663Z,20.10
2017-11-08T18:33:12.284Z,22.85
2017-11-08T18:35:38.771Z,19.10
2017-11-08T18:38:05.290Z,19.98
2017-11-08T18:40:31.809Z,27.00
2017-11-08T18:42:58.345Z,45.70
2017-11-08T18:45:24.828Z,22.58
2017-11-08T18:47:51.387Z,22.13
2017-11-08T18:50:17.856Z,22.60
2017-11-08T18:52:45.107Z,23.75
2017-11-08T18:55:12.340Z,21.08
2017-11-08T18:57:38.937Z,20.00
2017-11-08T19:00:05.544Z,17.52
2017-11-08T19:02:32.868Z,19.02
2017-11-08T19:04:59.347Z,20.45
2017-11-08T19:07:26.629Z,19.37
2017-11-08T19:09:53.384Z,19.73
2017-11-08T19:12:19.838Z,14.30
2017-11-08T19:14:46.372Z,18.55
2017-11-08T19:17:12.872Z,18.77
2017-11-08T19:19:40.095Z,20.98
2017-11-08T19:22:07.520Z,18.00
2017-11-08T19:24:34.100Z,20.60
2017-11-08T19:27:00.664Z,19.52
2017-11-08T19:29:27.874Z,20.35
2017-11-08T19:34:51.809Z,19.02
2017-11-08T19:37:19.206Z,17.33
2017-11-08T19:39:45.853Z,15.88
2017-11-08T19:42:12.415Z,16.05
2017-11-08T19:44:38.935Z,16.27
2017-11-08T19:47:05.490Z,17.23
2017-11-08T19:49:32.194Z,17.50
2017-11-08T19:51:58.710Z,17.55
2017-11-08T20:04:15.293Z,15.65
2017-11-08T20:06:41.844Z,15.88
2017-11-08T20:09:08.361Z,15.30
2017-11-08T20:11:34.898Z,15.88
2017-11-08T20:14:01.585Z,14.80
2017-11-08T20:16:28.153Z,14.18
2017-11-08T20:18:54.977Z,13.60
2017-11-08T20:21:21.495Z,13.25
2017-11-08T20:23:48.257Z,14.00
2017-11-08T20:26:15.464Z,13.57
2017-11-08T20:28:42.114Z,15.15
2017-11-08T20:31:08.626Z,14.15
2017-11-08T20:33:35.154Z,13.75
2017-11-08T20:36:01.738Z,14.50
2017-11-08T20:38:28.215Z,14.93
2017-11-08T20:50:44.874Z,13.00
2017-11-08T20:53:11.522Z,13.52
2017-11-08T20:55:38.829Z,14.73
2017-11-08T20:58:05.345Z,14.63
2017-11-08T21:00:32.597Z,16.15
2017-11-08T21:02:59.098Z,16.08
2017-11-08T21:05:26.234Z,15.52
2017-11-08T21:07:52.819Z,14.68
2017-11-08T21:10:19.423Z,15.45
2017-11-08T21:13:00.744Z,18.80
2017-11-08T21:15:27.263Z,14.27
2017-11-08T21:20:49.893Z,11.90
2017-11-08T21:23:16.513Z,16.35
2017-11-08T21:25:43.785Z,18.20
2017-11-08T21:28:10.301Z,13.57
2017-11-08T21:30:37.580Z,15.32
2017-11-08T21:33:04.919Z,16.60
2017-11-08T21:35:32.156Z,16.52
2017-11-08T21:37:58.660Z,14.55
2017-11-08T21:40:25.167Z,15.70
2017-11-08T21:42:52.392Z,8.93
2017-11-08T21:45:19.905Z,15.20
2017-11-08T21:47:46.481Z,15.52
2017-11-08T21:50:13.089Z,16.10
2017-11-08T21:52:39.585Z,13.57
2017-11-08T21:55:06.071Z,14.73
2017-11-08T21:57:32.560Z,12.30
2017-11-08T21:59:59.150Z,13.85
2017-11-08T22:02:25.732Z,11.63
2017-11-08T22:04:52.252Z,12.50
2017-11-08T22:07:18.789Z,11.80
2017-11-08T22:09:45.320Z,12.40
2017-11-08T22:12:11.762Z,11.98
2017-11-08T22:14:38.478Z,11.82
2017-11-08T22:17:05.685Z,14.50
2017-11-08T22:19:32.529Z,14.73
2017-11-08T22:21:58.968Z,15.88
2017-11-08T22:24:26.511Z,14.07
2017-11-08T22:26:53.037Z,14.60
2017-11-08T22:29:19.662Z,16.12
2017-11-08T22:31:47.059Z,21.50
2017-11-08T22:34:13.551Z,17.25
2017-11-08T22:36:40.866Z,15.18
2017-11-08T22:39:08.867Z,21.83
2017-11-08T22:41:35.340Z,17.55
2017-11-08T22:44:02.739Z,19.48
2017-11-08T22:46:29.238Z,15.10
2017-11-08T22:48:56.557Z,17.70
2017-11-08T22:51:23.144Z,16.92
2017-11-08T22:53:50.399Z,17.35
2017-11-08T22:56:17.655Z,15.50
2017-11-08T22:58:45.045Z,16.17
2017-11-08T23:01:11.522Z,12.85
2017-11-08T23:03:38.035Z,15.55
2017-11-08T23:06:04.827Z,14.25
2017-11-08T23:08:32.113Z,14.95
2017-11-08T23:10:58.628Z,14.43
2017-11-08T23:13:25.867Z,14.27
2017-11-08T23:15:52.371Z,14.80
2017-11-08T23:18:18.832Z,16.08
2017-11-08T23:20:45.433Z,15.35
2017-11-08T23:23:11.861Z,15.82
2017-11-08T23:25:38.541Z,15.20
2017-11-08T23:28:05.061Z,13.52
2017-11-08T23:30:31.676Z,13.00
2017-11-08T23:33:05.989Z,14.00
2017-11-08T23:35:33.189Z,12.95
2017-11-08T23:38:00.004Z,12.90
2017-11-08T23:40:26.538Z,11.93
2017-11-08T23:42:53.757Z,13.15
2017-11-08T23:45:20.260Z,12.18
2017-11-08T23:47:47.001Z,12.65
2017-11-08T23:50:13.512Z,12.77
2017-11-08T23:52:40.914Z,13.60
2017-11-08T23:55:07.345Z,11.48
2017-11-08T23:57:33.835Z,11.40
